createdAt,value
2023-03-22T00:01:05.770Z,49.44
2023-03-22T00:03:31.947Z,49.58
2023-03-22T00:05:58.106Z,49.65
2023-03-22T00:08:24.223Z,49.20
2023-03-22T00:10:50.344Z,49.23
2023-03-22T00:13:16.662Z,49.53
2023-03-22T00:15:42.834Z,49.29
2023-03-22T00:18:08.980Z,49.42
2023-03-22T00:20:35.086Z,47.92
2023-03-22T00:23:01.216Z,47.59
2023-03-22T00:25:27.317Z,46.92
2023-03-22T00:27:53.440Z,47.04
2023-03-22T00:30:19.586Z,47.24
2023-03-22T00:32:45.703Z,46.33
2023-03-22T00:35:11.809Z,46.69
2023-03-22T00:37:37.895Z,46.16
2023-03-22T00:40:03.984Z,48.02
2023-03-22T00:42:30.111Z,48.25
2023-03-22T00:44:56.219Z,47.08
2023-03-22T00:47:22.305Z,48.27
2023-03-22T00:49:48.388Z,48.81
2023-03-22T00:52:14.492Z,47.47
2023-03-22T00:54:40.620Z,47.79
2023-03-22T00:57:06.713Z,47.66
2023-03-22T00:59:32.844Z,48.30
2023-03-22T01:01:58.951Z,48.72
2023-03-22T01:04:25.050Z,49.14
2023-03-22T01:06:51.150Z,48.69
2023-03-22T01:09:17.294Z,48.69
2023-03-22T01:11:43.405Z,49.06
2023-03-22T01:14:09.521Z,49.35
2023-03-22T01:16:35.638Z,49.14
2023-03-22T01:19:01.799Z,48.45
2023-03-22T01:21:27.962Z,48.36
2023-03-22T01:23:54.077Z,48.49
2023-03-22T01:26:20.158Z,49.57
2023-03-22T01:28:46.288Z,49.20
2023-03-22T01:31:12.423Z,48.51
2023-03-22T01:33:38.550Z,48.46
2023-03-22T01:36:04.665Z,48.65
2023-03-22T01:38:30.774Z,48.44
2023-03-22T01:40:56.906Z,48.45
2023-03-22T01:43:23.038Z,48.58
2023-03-22T01:45:49.182Z,49.54
2023-03-22T01:48:15.512Z,49.22
2023-03-22T01:50:41.901Z,49.57
2023-03-22T01:53:08.120Z,49.96
2023-03-22T01:55:34.245Z,49.93
2023-03-22T01:58:00.349Z,49.27
2023-03-22T02:00:26.456Z,49.11
2023-03-22T02:02:52.625Z,49.85
2023-03-22T02:05:18.784Z,48.70
2023-03-22T02:07:44.917Z,48.33
2023-03-22T02:10:11.034Z,48.37
2023-03-22T02:12:37.134Z,48.60
2023-03-22T02:15:03.226Z,48.53
2023-03-22T02:17:29.329Z,49.14
2023-03-22T02:19:55.438Z,49.05
2023-03-22T02:22:21.565Z,49.14
2023-03-22T02:24:47.711Z,47.50
2023-03-22T02:27:13.818Z,47.46
2023-03-22T02:29:39.915Z,47.56
2023-03-22T02:32:06.016Z,47.09
2023-03-22T02:34:32.124Z,46.87
2023-03-22T02:36:58.323Z,48.26
2023-03-22T02:39:24.443Z,47.55
2023-03-22T02:41:50.560Z,47.99
2023-03-22T02:44:16.665Z,48.47
2023-03-22T02:46:42.846Z,48.69
2023-03-22T02:49:09.014Z,48.77
2023-03-22T02:51:35.128Z,49.21
2023-03-22T02:54:01.388Z,49.04
2023-03-22T02:56:27.520Z,50.20
2023-03-22T02:58:53.634Z,50.04
2023-03-22T03:01:19.862Z,50.30
2023-03-22T03:03:46.021Z,50.30
2023-03-22T03:06:12.120Z,50.42
2023-03-22T03:08:38.236Z,51.51
2023-03-22T03:11:04.349Z,51.19
2023-03-22T03:13:30.450Z,51.69
2023-03-22T03:15:56.605Z,51.17
2023-03-22T03:18:22.759Z,50.98
2023-03-22T03:20:48.882Z,51.43
2023-03-22T03:23:14.976Z,51.54
2023-03-22T03:25:41.108Z,50.60
2023-03-22T03:28:07.259Z,50.55
2023-03-22T03:30:33.416Z,51.17
2023-03-22T03:32:59.528Z,51.13
2023-03-22T03:35:25.671Z,50.10
2023-03-22T03:37:51.767Z,51.10
2023-03-22T03:40:17.886Z,50.73
2023-03-22T03:42:43.994Z,50.59
2023-03-22T03:45:10.139Z,51.13
2023-03-22T03:47:36.225Z,51.41
2023-03-22T03:50:02.350Z,51.24
2023-03-22T03:52:28.444Z,50.06
2023-03-22T03:54:54.684Z,50.43
2023-03-22T03:57:20.803Z,51.25
2023-03-22T03:59:46.898Z,50.69
2023-03-22T04:02:13.019Z,51.53
2023-03-22T04:04:39.183Z,51.81
2023-03-22T04:07:05.323Z,51.30
2023-03-22T04:09:31.432Z,50.90
2023-03-22T04:11:57.534Z,51.22
2023-03-22T04:14:23.674Z,51.49
2023-03-22T04:16:49.819Z,51.06
2023-03-22T04:19:15.984Z,50.56
2023-03-22T04:21:42.091Z,50.72
2023-03-22T04:24:08.175Z,50.85
2023-03-22T04:26:34.285Z,51.50
2023-03-22T04:29:00.381Z,50.37
2023-03-22T04:31:26.542Z,51.21
2023-03-22T04:33:52.697Z,50.85
2023-03-22T04:36:18.815Z,49.91
2023-03-22T04:38:44.938Z,49.78
2023-03-22T04:41:11.044Z,49.52
2023-03-22T04:43:37.154Z,49.90
2023-03-22T04:46:03.370Z,50.00
2023-03-22T04:48:29.498Z,49.74
2023-03-22T04:50:55.608Z,50.04
2023-03-22T04:53:21.739Z,51.39
2023-03-22T04:55:48.090Z,51.56
2023-03-22T04:58:14.187Z,51.00
2023-03-22T05:00:40.485Z,51.23
2023-03-22T05:03:06.755Z,51.47
2023-03-22T05:05:32.891Z,50.67
2023-03-22T05:07:58.990Z,50.80
2023-03-22T05:10:25.072Z,51.50
2023-03-22T05:12:51.171Z,49.60
2023-03-22T05:15:17.266Z,50.49
2023-03-22T05:17:43.371Z,50.75
2023-03-22T05:20:09.474Z,50.29
2023-03-22T05:22:35.589Z,49.65
2023-03-22T05:25:01.744Z,48.97
2023-03-22T05:27:27.833Z,49.12
2023-03-22T05:29:53.949Z,49.71
2023-03-22T05:32:20.115Z,49.77
2023-03-22T05:34:46.203Z,49.66
2023-03-22T05:37:12.347Z,48.96
2023-03-22T05:39:38.501Z,48.79
2023-03-22T05:42:04.584Z,48.61
2023-03-22T05:44:30.675Z,48.46
2023-03-22T05:46:56.826Z,49.29
2023-03-22T05:49:22.969Z,50.17
2023-03-22T05:51:49.087Z,49.87
2023-03-22T05:54:15.196Z,50.05
2023-03-22T05:56:41.321Z,50.00
2023-03-22T05:59:07.560Z,49.96
2023-03-22T06:01:33.723Z,49.66
2023-03-22T06:03:59.874Z,49.62
2023-03-22T06:06:25.981Z,48.99
2023-03-22T06:08:52.104Z,48.90
2023-03-22T06:11:18.196Z,47.96
2023-03-22T06:13:44.292Z,47.79
2023-03-22T06:16:10.450Z,47.81
2023-03-22T06:18:36.649Z,48.10
2023-03-22T06:21:02.764Z,49.16
2023-03-22T06:23:28.863Z,48.88
2023-03-22T06:25:54.975Z,48.39
2023-03-22T06:28:21.084Z,49.24
2023-03-22T06:30:47.219Z,50.00
2023-03-22T06:33:13.331Z,49.93
2023-03-22T06:35:39.512Z,49.20
2023-03-22T06:38:05.764Z,48.65
2023-03-22T06:40:31.887Z,48.99
2023-03-22T06:42:58.721Z,49.17
2023-03-22T06:45:25.930Z,49.30
2023-03-22T06:47:52.083Z,49.14
2023-03-22T06:50:18.222Z,48.71
2023-03-22T06:52:44.433Z,49.03
2023-03-22T06:55:10.553Z,48.02
2023-03-22T06:57:36.744Z,48.10
2023-03-22T07:00:02.834Z,48.25
2023-03-22T07:02:28.921Z,47.84
2023-03-22T07:04:55.003Z,48.11
2023-03-22T07:07:21.250Z,48.15
2023-03-22T07:09:47.392Z,48.16
2023-03-22T07:12:13.515Z,47.68
2023-03-22T07:14:39.816Z,47.63
2023-03-22T07:17:05.947Z,47.35
2023-03-22T07:19:32.363Z,47.11
2023-03-22T07:21:58.485Z,47.10
2023-03-22T07:24:24.586Z,47.31
2023-03-22T07:26:50.714Z,46.99
2023-03-22T07:29:16.819Z,47.07
2023-03-22T07:31:42.932Z,46.67
2023-03-22T07:34:09.042Z,45.46
2023-03-22T07:36:35.150Z,44.97
2023-03-22T07:39:01.245Z,44.68
2023-03-22T07:41:27.414Z,43.00
2023-03-22T07:44:00.233Z,41.39
2023-03-22T07:46:34.174Z,40.72
2023-03-22T07:49:00.306Z,40.05
2023-03-22T07:51:26.405Z,39.59
2023-03-22T07:53:52.491Z,38.81
2023-03-22T07:56:18.626Z,38.47
2023-03-22T07:58:44.759Z,38.17
2023-03-22T08:01:10.926Z,37.14
2023-03-22T08:03:37.042Z,37.49
2023-03-22T08:06:03.228Z,36.75
2023-03-22T08:08:29.377Z,36.86
2023-03-22T08:10:55.480Z,35.94
2023-03-22T08:13:21.894Z,35.77
2023-03-22T08:15:47.986Z,36.30
2023-03-22T08:18:14.079Z,36.21
2023-03-22T08:20:40.350Z,35.53
2023-03-22T08:23:06.540Z,35.70
2023-03-22T08:25:32.659Z,35.52
2023-03-22T08:27:58.768Z,35.82
2023-03-22T08:30:24.891Z,35.50
2023-03-22T08:32:51.086Z,35.61
2023-03-22T08:35:17.270Z,36.05
2023-03-22T08:37:43.421Z,36.12
2023-03-22T08:40:09.572Z,35.68
2023-03-22T08:42:36.798Z,35.09
2023-03-22T08:45:02.906Z,34.64
2023-03-22T08:47:29.033Z,34.01
2023-03-22T08:49:55.146Z,34.16
2023-03-22T08:52:21.278Z,33.56
2023-03-22T08:54:47.385Z,33.18
2023-03-22T08:57:13.532Z,32.65
2023-03-22T08:59:39.638Z,32.36
2023-03-22T09:02:05.898Z,32.64
2023-03-22T09:04:32.117Z,33.81
2023-03-22T09:06:58.231Z,33.77
2023-03-22T09:09:24.342Z,33.31
2023-03-22T09:11:50.446Z,32.58
2023-03-22T09:14:16.570Z,34.56
2023-03-22T09:16:42.676Z,32.84
2023-03-22T09:19:08.761Z,32.27
2023-03-22T09:21:35.085Z,30.88
2023-03-22T09:24:01.237Z,30.68
2023-03-22T09:26:27.356Z,32.19
2023-03-22T09:28:53.466Z,34.13
2023-03-22T09:31:20.689Z,35.47
2023-03-22T09:33:46.977Z,36.02
2023-03-22T09:36:13.064Z,36.10
2023-03-22T09:38:39.153Z,34.80
2023-03-22T09:41:05.248Z,34.96
2023-03-22T09:43:33.105Z,34.98
2023-03-22T09:45:59.363Z,34.98
2023-03-22T09:48:25.579Z,34.52
2023-03-22T09:50:51.722Z,34.38
2023-03-22T09:53:17.821Z,34.43
2023-03-22T09:55:43.939Z,34.30
2023-03-22T09:58:10.037Z,34.17
2023-03-22T10:00:36.273Z,34.63
2023-03-22T10:03:02.846Z,34.14
2023-03-22T10:05:28.981Z,33.81
2023-03-22T10:07:55.064Z,32.36
2023-03-22T10:10:21.244Z,31.63
2023-03-22T10:12:47.518Z,31.07
2023-03-22T10:15:13.653Z,31.28
2023-03-22T10:17:39.817Z,31.99
2023-03-22T10:20:05.956Z,31.72
2023-03-22T10:22:32.083Z,30.49
2023-03-22T10:24:58.195Z,31.19
2023-03-22T10:27:24.304Z,31.23
2023-03-22T10:29:50.409Z,30.01
2023-03-22T10:32:16.547Z,30.89
2023-03-22T10:34:42.652Z,30.60
2023-03-22T10:37:08.777Z,29.51
2023-03-22T10:39:34.897Z,28.76
2023-03-22T10:42:01.024Z,28.93
2023-03-22T10:44:27.186Z,29.37
2023-03-22T10:46:53.313Z,27.25
2023-03-22T10:49:19.475Z,26.48
2023-03-22T10:51:45.603Z,26.14
2023-03-22T10:54:11.700Z,25.81
2023-03-22T10:56:37.825Z,26.40
2023-03-22T10:59:03.958Z,25.01
2023-03-22T11:01:30.254Z,25.01
2023-03-22T11:03:56.402Z,25.78
2023-03-22T11:06:22.493Z,25.76
2023-03-22T11:08:48.600Z,25.59
2023-03-22T11:11:14.721Z,25.62
2023-03-22T11:13:40.833Z,24.53
2023-03-22T11:16:06.991Z,26.19
2023-03-22T11:18:33.125Z,24.45
2023-03-22T11:20:59.235Z,24.96
2023-03-22T11:23:25.343Z,24.87
2023-03-22T11:25:51.459Z,23.93
2023-03-22T11:28:17.564Z,24.94
2023-03-22T11:30:43.700Z,24.84
2023-03-22T11:33:09.923Z,24.76
2023-03-22T11:35:36.112Z,23.01
2023-03-22T11:38:02.372Z,22.69
2023-03-22T11:40:28.520Z,23.07
2023-03-22T11:42:54.631Z,23.26
2023-03-22T11:45:20.844Z,24.31
2023-03-22T11:47:47.025Z,25.81
2023-03-22T11:50:13.248Z,27.66
2023-03-22T11:52:39.361Z,27.40
2023-03-22T11:55:05.474Z,27.02
2023-03-22T11:57:31.611Z,26.51
2023-03-22T11:59:57.702Z,26.57
2023-03-22T12:02:24.069Z,26.57
2023-03-22T12:04:50.737Z,27.52
2023-03-22T12:07:16.913Z,27.70
2023-03-22T12:09:43.036Z,27.73
2023-03-22T12:12:09.152Z,26.92
2023-03-22T12:14:35.276Z,27.03
2023-03-22T12:17:01.395Z,27.61
2023-03-22T12:19:27.495Z,27.22
2023-03-22T12:21:53.578Z,28.20
2023-03-22T12:24:19.678Z,27.27
2023-03-22T12:26:45.789Z,26.53
2023-03-22T12:29:11.888Z,26.93
2023-03-22T12:31:38.059Z,26.91
2023-03-22T12:34:04.167Z,27.48
2023-03-22T12:36:30.348Z,26.30
2023-03-22T12:38:56.608Z,26.81
2023-03-22T12:41:24.815Z,27.73
2023-03-22T12:43:50.914Z,26.85
2023-03-22T12:46:17.118Z,27.18
2023-03-22T12:48:45.892Z,27.19
2023-03-22T12:51:12.616Z,25.95
2023-03-22T12:53:38.710Z,27.53
2023-03-22T12:56:04.802Z,26.75
2023-03-22T12:58:30.932Z,25.38
2023-03-22T13:00:57.124Z,26.95
2023-03-22T13:03:23.372Z,25.52
2023-03-22T13:05:49.576Z,26.59
2023-03-22T13:08:15.707Z,26.62
2023-03-22T13:10:42.021Z,26.69
2023-03-22T13:13:08.357Z,26.34
2023-03-22T13:15:41.796Z,26.41
2023-03-22T13:18:08.723Z,27.16
2023-03-22T13:20:34.857Z,27.52
2023-03-22T13:23:00.968Z,26.26
2023-03-22T13:25:27.078Z,26.72
2023-03-22T13:27:53.175Z,26.56
2023-03-22T13:30:19.268Z,26.98
2023-03-22T13:32:45.478Z,26.78
2023-03-22T13:35:11.606Z,25.99
2023-03-22T13:37:37.727Z,26.81
2023-03-22T13:40:03.845Z,25.46
2023-03-22T13:42:30.282Z,26.75
2023-03-22T13:44:56.397Z,26.26
2023-03-22T13:47:22.514Z,25.80
2023-03-22T13:49:48.649Z,25.83
2023-03-22T13:52:14.779Z,26.03
2023-03-22T13:54:40.870Z,25.89
2023-03-22T13:57:06.973Z,25.71
2023-03-22T13:59:33.073Z,25.49
2023-03-22T14:01:59.338Z,24.73
2023-03-22T14:04:25.540Z,25.55
2023-03-22T14:06:51.676Z,24.77
2023-03-22T14:09:17.787Z,25.11
2023-03-22T14:11:43.878Z,25.08
2023-03-22T14:14:10.000Z,25.65
2023-03-22T14:16:36.111Z,25.25
2023-03-22T14:19:02.208Z,25.65
2023-03-22T14:21:29.161Z,25.53
